createdAt,value
2018-09-09T00:02:24.150Z,87.60
2018-09-09T00:07:27.222Z,88.10
2018-09-09T00:12:30.288Z,88.20
2018-09-09T00:17:33.360Z,89.40
2018-09-09T00:22:36.450Z,88.80
2018-09-09T00:27:39.530Z,89.40
2018-09-09T00:32:42.612Z,87.90
2018-09-09T00:37:45.705Z,88.90
2018-09-09T00:42:48.796Z,89.60
2018-09-09T00:47:51.872Z,89.50
2018-09-09T00:53:58.170Z,90.00
2018-09-09T01:15:25.373Z,90.50
2018-09-09T01:20:28.435Z,89.60
2018-09-09T01:25:31.529Z,90.40
2018-09-09T01:30:34.596Z,90.10
2018-09-09T01:35:37.655Z,90.20
2018-09-09T01:40:40.725Z,90.60
2018-09-09T01:45:43.796Z,90.50
2018-09-09T01:50:46.883Z,90.60
2018-09-09T01:55:49.967Z,90.60
2018-09-09T02:00:53.070Z,90.60
2018-09-09T02:05:56.160Z,90.70
2018-09-09T02:10:59.920Z,90.20
2018-09-09T02:16:03.004Z,90.80
2018-09-09T02:21:06.085Z,90.70
2018-09-09T02:26:09.181Z,90.80
2018-09-09T02:31:12.235Z,91.00
2018-09-09T02:36:15.304Z,91.00
2018-09-09T02:41:18.377Z,91.10
2018-09-09T02:46:21.447Z,91.20
2018-09-09T02:51:24.511Z,91.40
2018-09-09T02:56:27.597Z,91.10
2018-09-09T03:01:30.667Z,91.20
2018-09-09T03:06:33.751Z,91.00
2018-09-09T03:11:36.831Z,91.40
2018-09-09T03:16:39.892Z,91.30
2018-09-09T03:21:42.979Z,91.70
2018-09-09T03:26:46.072Z,91.30
2018-09-09T03:31:49.160Z,91.50
2018-09-09T03:36:58.821Z,91.50
2018-09-09T03:42:01.890Z,91.90
2018-09-09T03:47:04.998Z,91.90
2018-09-09T03:52:08.079Z,91.90
2018-09-09T03:57:11.165Z,92.40
2018-09-09T04:02:14.233Z,92.00
2018-09-09T04:07:17.304Z,92.00
2018-09-09T04:12:20.368Z,91.90
2018-09-09T04:17:23.456Z,92.30
2018-09-09T04:22:26.524Z,92.20
2018-09-09T04:27:29.586Z,92.10
2018-09-09T04:32:32.643Z,92.30
2018-09-09T04:53:59.838Z,91.80
2018-09-09T04:59:02.900Z,92.00
2018-09-09T05:04:05.956Z,92.10
2018-09-09T05:09:09.430Z,92.40
2018-09-09T05:14:12.487Z,92.30
2018-09-09T05:19:15.566Z,92.20
2018-09-09T05:24:18.672Z,91.60
2018-09-09T05:29:21.746Z,91.40
2018-09-09T05:34:24.828Z,92.10
2018-09-09T05:39:27.919Z,92.10
2018-09-09T05:44:31.222Z,92.70
2018-09-09T05:49:34.255Z,92.70
2018-09-09T05:54:37.328Z,92.80
2018-09-09T05:59:40.410Z,92.80
2018-09-09T06:04:43.485Z,92.50
2018-09-09T06:09:46.572Z,92.80
2018-09-09T06:14:49.637Z,92.90
2018-09-09T06:19:52.911Z,93.20
2018-09-09T06:24:56.455Z,93.10
2018-09-09T06:29:59.524Z,93.10
2018-09-09T06:35:02.684Z,92.50
2018-09-09T06:56:30.655Z,92.40
2018-09-09T07:01:33.712Z,92.30
2018-09-09T07:06:36.830Z,92.30
2018-09-09T07:11:41.509Z,92.10
2018-09-09T07:16:44.459Z,92.40
2018-09-09T07:21:47.523Z,92.00
2018-09-09T07:26:50.599Z,92.10
2018-09-09T07:31:53.721Z,92.30
2018-09-09T07:36:56.812Z,92.40
2018-09-09T07:41:59.938Z,92.20
2018-09-09T07:47:03.040Z,91.90
2018-09-09T07:52:06.204Z,91.70
2018-09-09T07:57:09.259Z,91.40
2018-09-09T08:02:12.324Z,90.60
2018-09-09T08:07:15.375Z,90.80
2018-09-09T08:12:18.436Z,90.10
2018-09-09T08:17:21.512Z,90.40
2018-09-09T08:22:24.584Z,90.10
2018-09-09T08:27:27.650Z,89.70
2018-09-09T08:32:30.718Z,88.80
2018-09-09T08:37:33.785Z,87.80
2018-09-09T08:42:36.857Z,88.10
2018-09-09T08:47:39.934Z,88.40
2018-09-09T08:52:43.003Z,88.10
2018-09-09T08:57:46.080Z,85.00
2018-09-09T09:02:49.160Z,85.60
2018-09-09T09:07:52.293Z,84.90
2018-09-09T09:12:55.336Z,84.50
2018-09-09T09:17:58.404Z,83.20
2018-09-09T09:23:01.492Z,79.80
2018-09-09T09:28:04.585Z,80.50
2018-09-09T09:33:07.664Z,79.90
2018-09-09T09:38:10.748Z,76.70
2018-09-09T09:43:13.819Z,78.10
2018-09-09T09:48:16.909Z,75.40
2018-09-09T09:53:20.068Z,71.20
2018-09-09T09:58:23.081Z,66.70
2018-09-09T10:03:26.169Z,65.50
2018-09-09T10:08:29.245Z,63.30
2018-09-09T10:13:32.326Z,63.70
2018-09-09T10:18:35.388Z,58.10
2018-09-09T10:23:42.223Z,56.00
2018-09-09T10:28:45.247Z,55.80
2018-09-09T10:33:48.318Z,56.50
2018-09-09T10:38:51.436Z,54.40
2018-09-09T10:43:54.616Z,54.30
2018-09-09T11:05:22.671Z,48.00
2018-09-09T11:10:25.748Z,49.90
2018-09-09T11:15:28.814Z,46.70
2018-09-09T11:20:31.880Z,42.60
2018-09-09T11:25:34.963Z,45.80
2018-09-09T11:47:02.919Z,41.60
2018-09-09T11:52:05.986Z,41.50
2018-09-09T11:57:09.039Z,40.70
2018-09-09T12:02:12.124Z,41.40
2018-09-09T12:07:15.206Z,38.90
2018-09-09T12:12:18.339Z,40.60
2018-09-09T12:17:21.387Z,40.30
2018-09-09T12:22:24.460Z,41.40
2018-09-09T12:27:27.535Z,41.90
2018-09-09T12:32:30.610Z,38.70
2018-09-09T12:37:33.720Z,38.20
2018-09-09T12:59:01.611Z,37.50
2018-09-09T13:04:04.717Z,38.60
2018-09-09T13:09:08.691Z,40.20
2018-09-09T13:30:38.052Z,38.90
2018-09-09T13:35:41.133Z,37.10
2018-09-09T13:40:44.194Z,34.70
2018-09-09T13:45:47.248Z,35.90
2018-09-09T13:50:50.302Z,35.50
2018-09-09T13:55:53.361Z,34.90
2018-09-09T14:00:56.439Z,35.20
2018-09-09T14:05:59.501Z,34.20
2018-09-09T14:11:02.584Z,33.90
2018-09-09T14:16:05.653Z,34.80
2018-09-09T14:21:08.715Z,32.80
2018-09-09T14:26:11.792Z,33.60
2018-09-09T14:31:14.864Z,33.80
2018-09-09T14:36:17.945Z,34.50
2018-09-09T14:41:21.007Z,36.20
2018-09-09T14:46:24.091Z,35.60
2018-09-09T14:51:33.754Z,34.60
2018-09-09T14:56:36.828Z,34.90
2018-09-09T15:01:39.896Z,36.60
2018-09-09T15:06:42.973Z,35.20
2018-09-09T15:11:46.040Z,35.40
2018-09-09T15:16:49.156Z,35.60
2018-09-09T15:21:52.252Z,34.80
2018-09-09T15:26:55.309Z,35.70
2018-09-09T15:31:58.392Z,35.80
2018-09-09T15:37:01.453Z,36.30
2018-09-09T15:42:04.525Z,36.00
2018-09-09T15:47:08.464Z,35.70
2018-09-09T15:52:11.590Z,36.20
2018-09-09T15:57:14.615Z,35.80
2018-09-09T16:02:17.697Z,35.30
2018-09-09T16:07:20.816Z,35.30
2018-09-09T16:12:23.819Z,36.20
2018-09-09T16:17:26.890Z,35.40
2018-09-09T16:22:30.012Z,36.70
2018-09-09T16:27:33.126Z,35.80
2018-09-09T16:32:36.230Z,36.50
2018-09-09T16:37:39.304Z,37.30
2018-09-09T16:42:42.401Z,37.20
2018-09-09T16:47:45.480Z,38.20
2018-09-09T17:09:13.136Z,41.60
2018-09-09T17:14:16.261Z,42.50
2018-09-09T17:19:19.345Z,44.20
2018-09-09T17:24:22.772Z,44.40
2018-09-09T17:45:51.412Z,47.10
2018-09-09T17:50:54.488Z,47.80
2018-09-09T17:55:58.138Z,48.20
2018-09-09T18:01:01.399Z,48.70
2018-09-09T18:22:28.548Z,51.80
2018-09-09T18:27:31.654Z,52.00
2018-09-09T18:32:34.969Z,52.60
2018-09-09T18:54:03.254Z,53.90
2018-09-09T18:59:06.704Z,54.80
2018-09-09T19:04:10.135Z,55.40
2018-09-09T19:09:14.030Z,56.20
2018-09-09T19:14:17.202Z,55.70
2018-09-09T19:19:20.518Z,56.00
2018-09-09T19:40:48.748Z,57.80
2018-09-09T19:45:52.108Z,58.30
2018-09-09T19:50:55.216Z,58.90
2018-09-09T20:12:22.598Z,60.60
2018-09-09T20:17:25.657Z,60.90
2018-09-09T20:22:29.151Z,61.50
2018-09-09T20:27:32.690Z,61.70
2018-09-09T20:32:36.059Z,62.20
2018-09-09T20:37:39.732Z,62.40
2018-09-09T20:42:43.344Z,64.10
2018-09-09T20:47:46.884Z,63.60
2018-09-09T20:52:50.429Z,64.20
2018-09-09T20:57:53.580Z,64.90
2018-09-09T21:02:56.669Z,66.20
2018-09-09T21:07:59.730Z,67.70
2018-09-09T21:13:02.779Z,67.60
2018-09-09T21:18:05.836Z,68.40
2018-09-09T21:23:08.923Z,68.20
2018-09-09T21:28:11.985Z,68.90
2018-09-09T21:33:15.156Z,69.00
2018-09-09T21:38:18.231Z,69.40
2018-09-09T21:43:21.289Z,70.10
2018-09-09T21:48:24.350Z,70.60
2018-09-09T21:53:27.601Z,70.40
2018-09-09T22:14:55.762Z,72.10
2018-09-09T22:19:58.827Z,72.20
2018-09-09T22:25:01.888Z,72.50
2018-09-09T22:30:05.750Z,70.50
2018-09-09T22:35:08.822Z,71.00
2018-09-09T22:40:11.934Z,71.90
2018-09-09T22:45:14.960Z,73.50
2018-09-09T22:50:18.061Z,73.80
2018-09-09T22:55:21.124Z,73.00
2018-09-09T23:00:24.199Z,73.80
2018-09-09T23:05:27.318Z,74.20
2018-09-09T23:10:30.348Z,75.20
2018-09-09T23:15:33.423Z,75.60
2018-09-09T23:20:36.515Z,76.60
2018-09-09T23:25:39.575Z,76.90
2018-09-09T23:30:43.652Z,77.40
2018-09-09T23:35:46.737Z,77.30
2018-09-09T23:40:49.799Z,78.50
